Time;durP1;ratioP1;P1;durP2;ratioP2;P2;SDS_P1;SDS_P2;PMS_P1;PMS_P2;Temp;Humidity;BMP_temperature;BMP_pressure;BME280_temperature;BME280_humidity;BME280_pressure;Samples;Min_cycle;Max_cycle;Signal;HPM_P1;HPM_P2
2022/06/01 00:02:19;;;;;;;2.28;1.58;;;;;;;;;;5088836;28;20500;-57
2022/06/01 00:04:45;;;;;;;3.00;1.52;;;;;;;;;;5091999;28;20671;-57
2022/06/01 00:07:11;;;;;;;2.65;1.50;;;;;;;;;;5093866;28;20454;-58
2022/06/01 00:09:37;;;;;;;2.47;1.58;;;;;;;;;;5095407;28;20414;-58
2022/06/01 00:12:05;;;;;;;2.20;1.38;;;;;;;;;;5096216;28;20424;-58
2022/06/01 00:14:33;;;;;;;4.47;1.50;;;;;;;;;;5114244;28;20372;-58
2022/06/01 00:16:59;;;;;;;1.98;1.60;;;;;;;;;;5096054;28;20549;-58
2022/06/01 00:19:24;;;;;;;2.13;1.45;;;;;;;;;;5094509;28;20625;-59
2022/06/01 00:24:37;;;;;;;2.15;1.60;;;;;;;;;;5111033;28;20549;-58
2022/06/01 00:27:04;;;;;;;1.85;1.60;;;;;;;;;;5113653;28;20643;-58
2022/06/01 00:29:30;;;;;;;1.63;1.50;;;;;;;;;;5098627;28;20376;-59
2022/06/01 00:31:56;;;;;;;2.38;1.50;;;;;;;;;;5096270;28;20372;-58
2022/06/01 00:34:22;;;;;;;1.83;1.48;;;;;;;;;;5097132;28;20501;-59
2022/06/01 00:36:47;;;;;;;2.15;1.20;;;;;;;;;;5115764;28;20396;-59
2022/06/01 00:39:13;;;;;;;1.77;1.47;;;;;;;;;;5099285;28;20388;-58
2022/06/01 00:41:39;;;;;;;1.33;1.20;;;;;;;;;;5098726;28;20380;-56
2022/06/01 00:44:05;;;;;;;2.30;1.20;;;;;;;;;;5100756;28;20380;-58
2022/06/01 00:46:32;;;;;;;2.00;1.30;;;;;;;;;;5099426;28;20670;-58
2022/06/01 00:49:02;;;;;;;1.80;1.30;;;;;;;;;;5116291;28;20372;-57
2022/06/01 00:51:29;;;;;;;2.97;1.25;;;;;;;;;;5116171;28;20463;-58
2022/06/01 00:53:55;;;;;;;1.30;1.15;;;;;;;;;;5098558;28;20617;-55
2022/06/01 00:56:25;;;;;;;1.63;1.23;;;;;;;;;;5099669;28;20384;-59
2022/06/01 00:58:52;;;;;;;1.33;1.23;;;;;;;;;;5100052;28;20390;-57
2022/06/01 01:01:19;;;;;;;1.33;1.23;;;;;;;;;;5096339;28;20449;-59
2022/06/01 01:03:46;;;;;;;1.92;1.15;;;;;;;;;;5096969;28;20420;-59
2022/06/01 01:06:30;;;;;;;2.30;1.48;;;;;;;;;;5097006;28;20409;-57
2022/06/01 01:08:57;;;;;;;2.30;1.40;;;;;;;;;;5096378;28;20609;-59
2022/06/01 01:11:28;;;;;;;2.97;1.10;;;;;;;;;;5096918;28;20552;-59
2022/06/01 01:13:54;;;;;;;1.70;1.20;;;;;;;;;;5095327;28;20389;-59
2022/06/01 01:16:20;;;;;;;1.73;1.23;;;;;;;;;;5095591;28;20458;-57
2022/06/01 01:18:48;;;;;;;2.33;1.40;;;;;;;;;;5092002;28;20393;-58
2022/06/01 01:21:14;;;;;;;1.90;1.40;;;;;;;;;;5091430;28;20398;-59
2022/06/01 01:23:46;;;;;;;2.40;1.37;;;;;;;;;;5093149;28;20386;-59
2022/06/01 01:26:14;;;;;;;1.80;1.30;;;;;;;;;;5093312;28;20410;-58
2022/06/01 01:28:41;;;;;;;1.45;1.10;;;;;;;;;;5092559;28;20382;-57
2022/06/01 01:31:21;;;;;;;1.90;1.20;;;;;;;;;;5092752;28;20390;-59
2022/06/01 01:33:48;;;;;;;2.22;1.30;;;;;;;;;;5094107;28;20378;-58
2022/06/01 01:36:15;;;;;;;2.55;1.30;;;;;;;;;;5094088;28;20390;-58
2022/06/01 01:38:53;;;;;;;4.57;1.35;;;;;;;;;;5095366;28;20394;-55
2022/06/01 01:41:27;;;;;;;1.83;1.30;;;;;;;;;;5094832;28;20461;-58
2022/06/01 01:44:26;;;;;;;2.05;1.52;;;;;;;;;;5094184;28;20401;-59
2022/06/01 01:46:52;;;;;;;1.38;1.20;;;;;;;;;;5038319;28;20386;-58
2022/06/01 01:49:25;;;;;;;1.97;1.10;;;;;;;;;;5091956;28;20382;-55
2022/06/01 01:51:53;;;;;;;1.20;1.10;;;;;;;;;;5092897;28;20922;-56
2022/06/01 01:54:38;;;;;;;1.20;1.10;;;;;;;;;;5091136;28;20461;-56
2022/06/01 01:57:15;;;;;;;1.30;1.10;;;;;;;;;;5089390;28;20461;-58
2022/06/01 01:59:41;;;;;;;2.10;1.55;;;;;;;;;;5089246;28;20386;-58
2022/06/01 02:02:13;;;;;;;2.10;1.48;;;;;;;;;;5090754;28;20806;-59
2022/06/01 02:07:38;;;;;;;1.77;1.30;;;;;;;;;;5093001;28;20377;-58
2022/06/01 02:12:49;;;;;;;1.55;1.00;;;;;;;;;;5095402;28;20458;-56
2022/06/01 02:15:21;;;;;;;1.47;1.10;;;;;;;;;;5095221;28;20386;-55
2022/06/01 02:17:51;;;;;;;1.88;1.15;;;;;;;;;;5094676;28;20382;-59
2022/06/01 02:20:44;;;;;;;2.20;1.20;;;;;;;;;;5095071;28;20386;-57
2022/06/01 02:23:13;;;;;;;1.48;1.20;;;;;;;;;;5064735;28;20782;-61
2022/06/01 02:25:41;;;;;;;1.80;1.10;;;;;;;;;;5093800;28;20802;-55
2022/06/01 02:28:07;;;;;;;1.38;1.10;;;;;;;;;;5091451;28;20382;-59
2022/06/01 02:30:36;;;;;;;1.92;1.27;;;;;;;;;;5090638;28;20382;-58
2022/06/01 02:33:04;;;;;;;1.17;0.90;;;;;;;;;;5091357;28;20378;-59
2022/06/01 02:35:32;;;;;;;1.15;1.05;;;;;;;;;;5092397;28;20473;-58
2022/06/01 02:37:59;;;;;;;1.83;1.10;;;;;;;;;;5092438;28;20492;-59
2022/06/01 02:40:26;;;;;;;1.10;1.00;;;;;;;;;;5093068;28;20419;-57
2022/06/01 02:42:53;;;;;;;1.10;1.00;;;;;;;;;;5092068;28;20396;-55
2022/06/01 02:45:20;;;;;;;1.30;1.10;;;;;;;;;;5089928;28;20440;-58
2022/06/01 02:47:47;;;;;;;1.27;1.17;;;;;;;;;;5090474;28;20382;-58
2022/06/01 02:50:16;;;;;;;1.92;1.20;;;;;;;;;;5088533;28;20378;-58
2022/06/01 02:52:44;;;;;;;2.50;1.10;;;;;;;;;;5087171;28;20469;-54
2022/06/01 02:55:10;;;;;;;1.40;1.20;;;;;;;;;;5085091;28;20803;-59
2022/06/01 02:57:37;;;;;;;3.08;1.20;;;;;;;;;;5086946;28;20447;-57
2022/06/01 03:00:08;;;;;;;1.23;1.13;;;;;;;;;;5087657;28;20378;-57
2022/06/01 03:02:34;;;;;;;1.20;1.02;;;;;;;;;;5103079;28;20654;-56
2022/06/01 03:05:00;;;;;;;1.20;1.07;;;;;;;;;;5092725;28;20396;-58
2022/06/01 03:07:26;;;;;;;2.38;1.30;;;;;;;;;;5094041;28;20760;-56
2022/06/01 03:09:52;;;;;;;1.77;1.25;;;;;;;;;;5091609;28;20754;-59
2022/06/01 03:12:18;;;;;;;1.50;1.30;;;;;;;;;;5091712;28;20384;-54
2022/06/01 03:14:44;;;;;;;2.40;1.45;;;;;;;;;;5106165;28;20407;-57
2022/06/01 03:17:10;;;;;;;1.45;1.35;;;;;;;;;;5088234;28;20479;-59
2022/06/01 03:19:36;;;;;;;2.15;1.52;;;;;;;;;;5104091;28;20733;-59
2022/06/01 03:22:04;;;;;;;1.92;1.33;;;;;;;;;;5087260;28;20578;-57
2022/06/01 03:24:30;;;;;;;1.40;1.30;;;;;;;;;;5088742;28;20406;-59
2022/06/01 03:26:56;;;;;;;2.47;1.45;;;;;;;;;;5090156;28;20375;-57
2022/06/01 03:29:24;;;;;;;1.60;1.50;;;;;;;;;;5089366;28;20372;-59
2022/06/01 03:34:54;;;;;;;2.08;1.65;;;;;;;;;;5111832;28;20409;-59
2022/06/01 03:37:20;;;;;;;1.67;1.20;;;;;;;;;;5093850;28;20383;-58
2022/06/01 03:39:46;;;;;;;2.08;1.48;;;;;;;;;;5094841;28;20376;-59
2022/06/01 03:42:12;;;;;;;2.28;1.42;;;;;;;;;;5111039;28;20471;-59
2022/06/01 03:47:23;;;;;;;2.13;1.40;;;;;;;;;;5111632;28;20628;-56
2022/06/01 03:49:49;;;;;;;2.20;1.45;;;;;;;;;;5091974;28;20391;-59
2022/06/01 03:52:15;;;;;;;1.38;1.20;;;;;;;;;;5090518;28;20381;-58
2022/06/01 03:54:41;;;;;;;3.35;1.42;;;;;;;;;;5091093;28;20392;-55
2022/06/01 03:57:07;;;;;;;1.48;1.38;;;;;;;;;;5089769;28;20383;-55
2022/06/01 03:59:33;;;;;;;1.58;1.35;;;;;;;;;;5089682;28;20376;-59
2022/06/01 04:02:00;;;;;;;1.63;1.30;;;;;;;;;;5088325;28;20827;-58
2022/06/01 04:04:26;;;;;;;2.55;1.50;;;;;;;;;;5090383;28;20831;-58
2022/06/01 04:06:52;;;;;;;1.55;1.45;;;;;;;;;;5091533;28;20812;-57
2022/06/01 04:09:18;;;;;;;2.28;1.60;;;;;;;;;;5089877;28;20469;-55
2022/06/01 04:11:44;;;;;;;1.88;1.52;;;;;;;;;;5088442;28;20758;-56
2022/06/01 04:14:11;;;;;;;1.95;1.50;;;;;;;;;;5088951;28;20381;-56
2022/06/01 04:16:37;;;;;;;3.93;1.53;;;;;;;;;;5087114;28;20469;-57
2022/06/01 04:19:03;;;;;;;2.47;1.30;;;;;;;;;;5085583;28;21062;-57
2022/06/01 04:21:31;;;;;;;2.47;1.50;;;;;;;;;;5085166;28;20385;-57
2022/06/01 04:24:00;;;;;;;1.63;1.42;;;;;;;;;;5084820;28;20531;-59
2022/06/01 04:26:25;;;;;;;1.50;1.40;;;;;;;;;;5085464;28;20707;-58
2022/06/01 04:28:51;;;;;;;1.60;1.50;;;;;;;;;;5084296;28;20378;-57
2022/06/01 04:31:18;;;;;;;2.95;1.75;;;;;;;;;;5085852;28;20401;-56
2022/06/01 04:33:44;;;;;;;1.73;1.48;;;;;;;;;;5086715;28;20425;-57
2022/06/01 04:36:10;;;;;;;1.63;1.53;;;;;;;;;;5088945;28;20421;-57
2022/06/01 04:38:36;;;;;;;2.25;1.83;;;;;;;;;;5085553;28;20386;-59
2022/06/01 04:41:02;;;;;;;2.20;1.60;;;;;;;;;;5085986;28;20382;-58
2022/06/01 04:43:28;;;;;;;1.75;1.65;;;;;;;;;;5086152;28;20381;-58
2022/06/01 04:45:54;;;;;;;1.70;1.60;;;;;;;;;;5085785;28;20470;-58
2022/06/01 04:48:22;;;;;;;2.88;1.55;;;;;;;;;;5086102;28;20370;-63
2022/06/01 04:50:48;;;;;;;1.90;1.73;;;;;;;;;;5083316;28;20758;-58
2022/06/01 04:53:15;;;;;;;1.93;1.60;;;;;;;;;;5087845;28;20439;-55
2022/06/01 04:55:42;;;;;;;2.10;1.90;;;;;;;;;;5092148;28;20381;-58
2022/06/01 04:58:08;;;;;;;1.85;1.70;;;;;;;;;;5092719;28;20390;-58
2022/06/01 05:00:34;;;;;;;2.08;1.88;;;;;;;;;;5092652;28;20378;-58
2022/06/01 05:03:01;;;;;;;1.65;1.55;;;;;;;;;;5093420;28;20538;-57
2022/06/01 05:05:27;;;;;;;2.20;1.80;;;;;;;;;;5094708;28;20666;-54
2022/06/01 05:07:54;;;;;;;1.80;1.70;;;;;;;;;;5095201;28;20389;-58
2022/06/01 05:10:21;;;;;;;1.80;1.70;;;;;;;;;;5095610;28;20375;-58
2022/06/01 05:12:48;;;;;;;1.90;1.80;;;;;;;;;;5094387;28;20370;-58
2022/06/01 05:15:14;;;;;;;2.40;2.20;;;;;;;;;;5094911;28;20380;-58
2022/06/01 05:17:40;;;;;;;1.83;1.63;;;;;;;;;;5093633;28;20476;-57
2022/06/01 05:20:07;;;;;;;1.70;1.60;;;;;;;;;;5092957;28;20469;-58
2022/06/01 05:22:33;;;;;;;1.60;1.50;;;;;;;;;;5092873;28;21126;-60
2022/06/01 05:24:59;;;;;;;2.33;2.13;;;;;;;;;;5093724;28;20522;-56
2022/06/01 05:27:25;;;;;;;3.85;2.28;;;;;;;;;;5092598;28;20477;-57
2022/06/01 05:29:51;;;;;;;2.58;2.38;;;;;;;;;;5094188;28;20432;-58
2022/06/01 05:32:17;;;;;;;2.63;2.30;;;;;;;;;;5092220;28;20857;-57
2022/06/01 05:34:43;;;;;;;2.50;2.00;;;;;;;;;;5091520;28;20382;-59
2022/06/01 05:37:09;;;;;;;3.22;2.22;;;;;;;;;;5090311;28;20394;-56
2022/06/01 05:39:36;;;;;;;3.80;2.40;;;;;;;;;;5090857;28;20394;-56
2022/06/01 05:42:02;;;;;;;3.65;2.33;;;;;;;;;;5091515;28;20401;-58
2022/06/01 05:44:28;;;;;;;4.73;2.83;;;;;;;;;;5091188;28;20377;-58
2022/06/01 05:46:54;;;;;;;5.50;2.53;;;;;;;;;;5092544;28;20377;-57
2022/06/01 05:49:20;;;;;;;5.32;2.72;;;;;;;;;;5091180;28;20695;-59
2022/06/01 05:51:46;;;;;;;2.60;2.40;;;;;;;;;;5090399;28;20394;-58
2022/06/01 05:54:12;;;;;;;3.88;2.83;;;;;;;;;;5090488;28;20386;-59
2022/06/01 05:56:38;;;;;;;6.43;3.40;;;;;;;;;;5090569;28;20509;-59
2022/06/01 05:59:04;;;;;;;5.13;3.33;;;;;;;;;;5090287;28;20394;-59
2022/06/01 06:01:30;;;;;;;3.70;3.27;;;;;;;;;;5089922;28;20463;-59
2022/06/01 06:03:56;;;;;;;4.00;3.60;;;;;;;;;;5090972;28;20382;-58
2022/06/01 06:06:23;;;;;;;4.27;3.80;;;;;;;;;;5091740;28;20968;-58
2022/06/01 06:09:00;;;;;;;6.22;4.05;;;;;;;;;;5089028;28;20386;-59
2022/06/01 06:11:27;;;;;;;7.93;4.40;;;;;;;;;;5086503;28;20394;-56
2022/06/01 06:13:54;;;;;;;7.10;6.07;;;;;;;;;;5089007;28;20382;-57
2022/06/01 06:16:20;;;;;;;8.90;6.85;;;;;;;;;;5089078;28;20374;-55
2022/06/01 06:18:46;;;;;;;9.88;6.97;;;;;;;;;;5085813;28;20393;-57
2022/06/01 06:21:12;;;;;;;8.07;7.28;;;;;;;;;;5085420;28;21049;-60
2022/06/01 06:23:38;;;;;;;8.52;7.70;;;;;;;;;;5086719;28;20378;-57
2022/06/01 06:26:04;;;;;;;8.68;7.80;;;;;;;;;;5084953;28;20820;-57
2022/06/01 06:28:31;;;;;;;9.20;8.10;;;;;;;;;;5087391;28;20386;-57
2022/06/01 06:30:57;;;;;;;9.55;8.55;;;;;;;;;;5088372;28;20469;-57
2022/06/01 06:33:23;;;;;;;9.82;8.80;;;;;;;;;;5088534;28;20447;-57
2022/06/01 06:36:00;;;;;;;8.88;7.75;;;;;;;;;;5089509;28;20390;-57
2022/06/01 06:38:27;;;;;;;10.93;8.60;;;;;;;;;;5090163;28;20389;-58
2022/06/01 06:40:54;;;;;;;9.57;7.72;;;;;;;;;;5090186;28;21019;-57
2022/06/01 06:43:20;;;;;;;8.38;7.47;;;;;;;;;;5090197;28;20374;-56
2022/06/01 06:45:48;;;;;;;8.27;6.85;;;;;;;;;;5092714;28;20421;-57
2022/06/01 06:48:14;;;;;;;8.05;7.10;;;;;;;;;;5091706;28;20374;-58
2022/06/01 06:50:40;;;;;;;7.85;7.07;;;;;;;;;;5090401;28;20378;-57
2022/06/01 06:53:06;;;;;;;8.50;7.63;;;;;;;;;;5089819;28;20393;-57
2022/06/01 06:55:32;;;;;;;7.80;7.10;;;;;;;;;;5089419;28;20386;-57
2022/06/01 06:57:58;;;;;;;6.90;6.30;;;;;;;;;;5087614;28;20794;-55
2022/06/01 07:00:25;;;;;;;7.35;6.55;;;;;;;;;;5089111;28;20993;-56
2022/06/01 07:02:51;;;;;;;7.75;6.15;;;;;;;;;;5088168;28;20836;-55
2022/06/01 07:06:08;;;;;;;7.00;5.97;;;;;;;;;;5087940;28;20497;-57
2022/06/01 07:08:05;;;;;;;6.67;6.07;;;;;;;;;;5089034;28;20423;-57
2022/06/01 07:10:31;;;;;;;9.73;7.18;;;;;;;;;;5087736;28;20481;-57
2022/06/01 07:12:57;;;;;;;7.07;6.45;;;;;;;;;;5088832;28;20386;-55
2022/06/01 07:15:23;;;;;;;7.07;6.38;;;;;;;;;;5085685;28;20447;-55
2022/06/01 07:17:50;;;;;;;6.38;5.80;;;;;;;;;;5085096;28;20390;-56
2022/06/01 07:20:16;;;;;;;7.32;6.03;;;;;;;;;;5085303;28;20392;-57
2022/06/01 07:22:43;;;;;;;6.13;5.53;;;;;;;;;;5087577;28;20401;-58
2022/06/01 07:25:09;;;;;;;6.30;5.40;;;;;;;;;;5087559;28;20402;-57
2022/06/01 07:27:36;;;;;;;4.93;4.53;;;;;;;;;;5087287;28;20816;-55
2022/06/01 07:30:03;;;;;;;5.03;4.53;;;;;;;;;;5087693;28;20370;-58
2022/06/01 07:32:29;;;;;;;5.03;4.63;;;;;;;;;;5086750;28;20813;-56
2022/06/01 07:34:55;;;;;;;4.95;4.45;;;;;;;;;;5084065;28;20386;-58
2022/06/01 07:43:06;;;;;;;5.72;5.22;;;;;;;;;;5083320;28;20471;-57
2022/06/01 07:45:36;;;;;;;4.97;4.47;;;;;;;;;;5079161;28;20459;-56
2022/06/01 07:48:03;;;;;;;4.60;4.20;;;;;;;;;;5080106;28;20431;-53
2022/06/01 07:50:29;;;;;;;4.32;3.92;;;;;;;;;;5080632;28;20381;-59
2022/06/01 07:52:55;;;;;;;5.05;4.55;;;;;;;;;;5081292;28;20933;-57
2022/06/01 07:55:21;;;;;;;4.40;4.00;;;;;;;;;;5082349;28;20485;-58
2022/06/01 07:57:50;;;;;;;5.80;4.60;;;;;;;;;;5082969;28;20381;-53
2022/06/01 08:00:17;;;;;;;5.15;4.65;;;;;;;;;;5083192;28;20410;-58
2022/06/01 08:02:43;;;;;;;6.10;5.00;;;;;;;;;;5098766;28;21055;-55
2022/06/01 08:05:10;;;;;;;5.45;4.93;;;;;;;;;;5086596;28;20552;-57
2022/06/01 08:07:36;;;;;;;4.90;4.50;;;;;;;;;;5104873;28;20388;-56
2022/06/01 08:10:03;;;;;;;6.32;4.68;;;;;;;;;;5090823;28;20385;-59
2022/06/01 08:15:14;;;;;;;4.68;4.03;;;;;;;;;;5106632;28;20415;-57
2022/06/01 08:17:44;;;;;;;6.07;4.30;;;;;;;;;;5090104;28;20380;-55
2022/06/01 08:20:12;;;;;;;4.72;4.32;;;;;;;;;;5090360;28;20380;-58
2022/06/01 08:22:38;;;;;;;5.22;4.70;;;;;;;;;;5109913;28;20380;-59
2022/06/01 08:25:04;;;;;;;4.97;4.55;;;;;;;;;;5090233;28;20412;-57
2022/06/01 08:27:30;;;;;;;5.40;4.60;;;;;;;;;;5088248;28;20417;-55
2022/06/01 08:29:56;;;;;;;5.38;4.88;;;;;;;;;;5089108;28;20467;-58
2022/06/01 08:32:24;;;;;;;5.47;4.10;;;;;;;;;;5090704;28;20486;-58
2022/06/01 08:34:50;;;;;;;4.22;3.60;;;;;;;;;;5090265;28;20392;-57
2022/06/01 08:37:16;;;;;;;4.50;4.10;;;;;;;;;;5090378;28;20396;-58
2022/06/01 08:39:43;;;;;;;4.78;4.22;;;;;;;;;;5091337;28;20380;-57
2022/06/01 08:42:12;;;;;;;5.37;4.70;;;;;;;;;;5108980;28;20373;-59
2022/06/01 08:44:40;;;;;;;6.13;5.13;;;;;;;;;;5093626;28;20500;-58
2022/06/01 08:47:11;;;;;;;6.10;5.50;;;;;;;;;;5093923;28;20679;-56
2022/06/01 08:49:37;;;;;;;5.70;5.15;;;;;;;;;;5093896;28;20787;-57
2022/06/01 08:52:04;;;;;;;6.22;5.43;;;;;;;;;;5090721;28;20392;-57
2022/06/01 08:54:32;;;;;;;6.78;6.03;;;;;;;;;;5089308;28;20368;-57
2022/06/01 08:57:20;;;;;;;6.03;5.43;;;;;;;;;;5108594;28;20380;-55
2022/06/01 09:00:07;;;;;;;6.55;5.80;;;;;;;;;;5092244;28;20772;-58
2022/06/01 09:02:49;;;;;;;6.15;4.55;;;;;;;;;;5110329;28;20397;-57
2022/06/01 09:05:15;;;;;;;6.00;5.03;;;;;;;;;;5093281;28;20404;-57
2022/06/01 09:08:00;;;;;;;4.50;4.10;;;;;;;;;;5112520;28;20832;-55
2022/06/01 09:10:39;;;;;;;7.03;4.63;;;;;;;;;;5094293;28;20368;-56
2022/06/01 09:13:12;;;;;;;4.77;3.70;;;;;;;;;;5093990;28;20393;-57
2022/06/01 09:15:48;;;;;;;4.80;3.70;;;;;;;;;;5110491;28;20649;-63
2022/06/01 09:18:17;;;;;;;4.07;3.50;;;;;;;;;;5091175;28;20435;-63
2022/06/01 09:23:31;;;;;;;4.10;3.33;;;;;;;;;;5105942;28;20534;-58
2022/06/01 09:25:58;;;;;;;3.78;2.35;;;;;;;;;;5087658;28;20811;-59
2022/06/01 09:28:28;;;;;;;3.85;3.20;;;;;;;;;;5087118;28;20388;-58
2022/06/01 09:30:55;;;;;;;3.55;2.60;;;;;;;;;;5088901;28;20706;-58
2022/06/01 09:33:31;;;;;;;3.00;2.70;;;;;;;;;;5087773;28;20376;-58
2022/06/01 09:36:06;;;;;;;1.90;1.80;;;;;;;;;;5107741;28;20415;-57
2022/06/01 09:38:49;;;;;;;2.63;2.42;;;;;;;;;;5088193;28;20412;-57
2022/06/01 09:41:36;;;;;;;3.83;2.97;;;;;;;;;;5088297;28;20680;-58
2022/06/01 09:44:17;;;;;;;2.20;2.00;;;;;;;;;;5106912;28;20388;-57
2022/06/01 09:47:00;;;;;;;2.30;2.10;;;;;;;;;;5108450;28;20388;-56
2022/06/01 09:49:34;;;;;;;2.20;2.00;;;;;;;;;;5093245;28;20360;-57
2022/06/01 09:52:07;;;;;;;2.83;1.83;;;;;;;;;;5073901;28;20491;-58
2022/06/01 09:54:36;;;;;;;2.42;1.80;;;;;;;;;;5107544;28;20725;-59
2022/06/01 09:57:19;;;;;;;1.55;1.45;;;;;;;;;;5088038;28;20440;-57
2022/06/01 10:08:42;;;;;;;1.95;1.85;;;;;;;;;;5106180;28;20367;-58
2022/06/01 10:11:20;;;;;;;4.38;2.35;;;;;;;;;;5090679;28;20489;-58
2022/06/01 10:13:53;;;;;;;2.58;2.25;;;;;;;;;;5091841;28;20495;-57
2022/06/01 10:16:29;;;;;;;2.55;2.03;;;;;;;;;;5090907;28;20487;-58
2022/06/01 10:18:57;;;;;;;2.40;2.20;;;;;;;;;;5091992;28;20403;-59
2022/06/01 10:21:26;;;;;;;2.38;2.15;;;;;;;;;;5107988;28;20755;-56
2022/06/01 10:24:01;;;;;;;2.60;2.30;;;;;;;;;;5090290;28;20945;-57
2022/06/01 10:26:29;;;;;;;3.85;2.30;;;;;;;;;;5092207;28;20759;-58
2022/06/01 10:29:16;;;;;;;2.92;2.63;;;;;;;;;;5111294;28;20400;-58
2022/06/01 10:31:48;;;;;;;2.08;1.70;;;;;;;;;;5093813;28;20524;-57
2022/06/01 10:34:23;;;;;;;2.10;1.80;;;;;;;;;;5093366;28;21027;-59
2022/06/01 10:37:08;;;;;;;2.33;1.92;;;;;;;;;;5092655;28;20377;-59
2022/06/01 10:39:53;;;;;;;2.88;1.98;;;;;;;;;;5091095;28;20525;-56
2022/06/01 10:43:16;;;;;;;3.15;1.80;;;;;;;;;;5091131;28;20400;-58
2022/06/01 10:45:14;;;;;;;1.95;1.80;;;;;;;;;;5105859;28;20871;-57
2022/06/01 10:47:43;;;;;;;2.10;1.90;;;;;;;;;;5089041;28;20388;-58
2022/06/01 10:50:19;;;;;;;2.20;2.00;;;;;;;;;;5088734;28;20389;-58
2022/06/01 10:52:52;;;;;;;2.50;1.50;;;;;;;;;;5087313;28;20476;-58
2022/06/01 10:55:21;;;;;;;2.22;2.00;;;;;;;;;;5085720;28;20965;-56
2022/06/01 10:57:48;;;;;;;2.20;2.00;;;;;;;;;;5086760;28;20449;-57
2022/06/01 11:00:27;;;;;;;1.95;1.80;;;;;;;;;;5103280;28;20372;-58
2022/06/01 11:03:12;;;;;;;2.75;2.50;;;;;;;;;;5082469;28;20699;-60
2022/06/01 11:05:41;;;;;;;2.60;2.28;;;;;;;;;;5084549;28;20404;-54
2022/06/01 11:08:31;;;;;;;2.95;2.60;;;;;;;;;;5103254;28;20380;-58
2022/06/01 11:10:57;;;;;;;2.45;2.15;;;;;;;;;;5084762;28;20997;-57
2022/06/01 11:13:32;;;;;;;4.30;3.10;;;;;;;;;;5104226;28;20384;-59
2022/06/01 11:16:01;;;;;;;3.05;2.70;;;;;;;;;;5084352;28;20376;-55
2022/06/01 11:19:03;;;;;;;4.38;3.00;;;;;;;;;;5080744;28;20380;-59
2022/06/01 11:21:35;;;;;;;3.92;3.22;;;;;;;;;;4979339;28;20444;-58
2022/06/01 11:24:29;;;;;;;3.30;3.00;;;;;;;;;;5064273;28;20666;-57
2022/06/01 11:27:16;;;;;;;3.07;2.80;;;;;;;;;;5099372;28;20504;-58
2022/06/01 11:29:53;;;;;;;2.83;2.50;;;;;;;;;;5084794;28;20472;-59
2022/06/01 11:32:22;;;;;;;3.10;2.80;;;;;;;;;;5086783;28;20376;-57
2022/06/01 11:34:51;;;;;;;3.63;3.28;;;;;;;;;;5088043;28;20517;-57
2022/06/01 11:37:17;;;;;;;3.08;2.78;;;;;;;;;;5089392;28;20384;-58
2022/06/01 11:39:56;;;;;;;3.08;2.78;;;;;;;;;;5088784;28;20437;-55
2022/06/01 11:42:26;;;;;;;2.13;1.98;;;;;;;;;;5088016;28;20400;-58
2022/06/01 11:44:54;;;;;;;2.90;2.30;;;;;;;;;;5087168;28;20747;-57
2022/06/01 11:47:22;;;;;;;2.60;2.40;;;;;;;;;;5084259;28;20380;-60
2022/06/01 11:50:07;;;;;;;2.85;2.65;;;;;;;;;;5086074;28;20453;-58
2022/06/01 11:52:35;;;;;;;3.35;2.90;;;;;;;;;;5087587;28;20365;-57
2022/06/01 11:55:06;;;;;;;4.40;3.10;;;;;;;;;;5104970;28;20904;-58
2022/06/01 11:58:00;;;;;;;3.55;3.10;;;;;;;;;;5089791;28;21027;-58
2022/06/01 12:00:32;;;;;;;5.07;3.15;;;;;;;;;;5051373;28;20384;-55
2022/06/01 12:03:01;;;;;;;4.45;3.38;;;;;;;;;;5107230;28;20414;-58
2022/06/01 12:05:27;;;;;;;5.28;3.60;;;;;;;;;;5089139;28;20446;-59
2022/06/01 12:08:17;;;;;;;6.15;3.58;;;;;;;;;;5088617;28;20377;-57
2022/06/01 12:10:54;;;;;;;3.73;3.30;;;;;;;;;;5087479;28;20368;-58
2022/06/01 12:13:53;;;;;;;3.83;3.42;;;;;;;;;;5107312;28;20404;-58
2022/06/01 12:16:28;;;;;;;3.95;3.40;;;;;;;;;;5049298;28;20408;-59
2022/06/01 12:19:08;;;;;;;4.10;3.70;;;;;;;;;;5087208;28;20517;-59
2022/06/01 12:21:54;;;;;;;4.30;3.90;;;;;;;;;;5084545;28;20542;-59
2022/06/01 12:29:59;;;;;;;5.72;4.50;;;;;;;;;;5102343;28;20359;-58
2022/06/01 12:32:25;;;;;;;4.70;4.30;;;;;;;;;;5085271;28;20396;-59
2022/06/01 12:35:00;;;;;;;3.97;3.43;;;;;;;;;;5085641;28;20420;-59
2022/06/01 12:37:31;;;;;;;4.78;3.95;;;;;;;;;;5085736;28;20380;-58
2022/06/01 12:40:01;;;;;;;6.03;4.13;;;;;;;;;;5107465;28;20364;-59
2022/06/01 12:42:38;;;;;;;5.80;5.03;;;;;;;;;;5090905;28;20392;-58
2022/06/01 12:45:12;;;;;;;5.75;4.90;;;;;;;;;;5090420;28;20676;-57
2022/06/01 12:47:42;;;;;;;6.27;4.87;;;;;;;;;;5089361;28;20441;-58
2022/06/01 12:50:11;;;;;;;4.82;4.30;;;;;;;;;;5108426;28;20372;-58
2022/06/01 12:52:37;;;;;;;7.55;5.63;;;;;;;;;;5090379;28;20749;-58
2022/06/01 12:55:07;;;;;;;10.93;6.95;;;;;;;;;;5090826;28;20881;-57
2022/06/01 12:57:33;;;;;;;7.40;6.30;;;;;;;;;;5089140;28;20388;-59
2022/06/01 13:00:05;;;;;;;7.05;6.20;;;;;;;;;;5088780;28;20895;-58
2022/06/01 13:02:40;;;;;;;7.45;6.22;;;;;;;;;;5084091;28;20422;-58
2022/06/01 13:05:07;;;;;;;7.05;6.28;;;;;;;;;;5083588;28;20405;-55
2022/06/01 13:07:37;;;;;;;8.60;7.05;;;;;;;;;;5081977;28;20403;-57
2022/06/01 13:10:06;;;;;;;8.05;7.25;;;;;;;;;;5080657;28;20946;-58
2022/06/01 13:12:33;;;;;;;8.98;8.18;;;;;;;;;;5077535;28;20394;-58
2022/06/01 13:15:09;;;;;;;8.13;7.38;;;;;;;;;;5078990;28;20381;-59
2022/06/01 13:17:44;;;;;;;8.50;7.57;;;;;;;;;;5077428;28;20578;-58
2022/06/01 13:20:10;;;;;;;9.30;8.40;;;;;;;;;;5080779;28;20388;-58
2022/06/01 13:22:38;;;;;;;10.30;9.30;;;;;;;;;;5081942;28;20400;-56
2022/06/01 13:25:06;;;;;;;11.10;10.00;;;;;;;;;;5081433;28;20478;-55
2022/06/01 13:27:35;;;;;;;12.95;9.68;;;;;;;;;;5082646;28;20406;-54
2022/06/01 13:30:02;;;;;;;6.30;5.28;;;;;;;;;;5080634;28;20418;-58
2022/06/01 13:32:36;;;;;;;3.03;2.30;;;;;;;;;;5073110;28;20429;-58
2022/06/01 13:35:05;;;;;;;2.55;2.17;;;;;;;;;;5072577;28;20867;-54
2022/06/01 13:37:31;;;;;;;4.57;1.97;;;;;;;;;;5072630;28;21017;-54
2022/06/01 13:40:03;;;;;;;2.50;2.00;;;;;;;;;;5076406;28;20533;-56
2022/06/01 13:42:32;;;;;;;3.83;1.90;;;;;;;;;;5073429;28;20405;-56
2022/06/01 13:45:04;;;;;;;2.33;2.00;;;;;;;;;;5074614;28;20552;-55
2022/06/01 13:47:32;;;;;;;2.03;1.77;;;;;;;;;;5076628;28;20443;-61
2022/06/01 13:50:18;;;;;;;2.08;1.90;;;;;;;;;;5077668;28;20809;-58
2022/06/01 13:53:04;;;;;;;2.42;1.80;;;;;;;;;;5079058;28;20610;-58
2022/06/01 13:55:32;;;;;;;2.70;2.17;;;;;;;;;;5078217;28;20450;-55
2022/06/01 13:58:08;;;;;;;3.63;2.20;;;;;;;;;;5078776;28;20394;-58
2022/06/01 14:00:36;;;;;;;3.08;2.55;;;;;;;;;;5080319;28;20378;-58
2022/06/01 14:03:10;;;;;;;2.67;2.30;;;;;;;;;;5078011;28;20429;-58
2022/06/01 14:05:40;;;;;;;1.95;1.80;;;;;;;;;;5075166;28;20492;-58
2022/06/01 14:08:06;;;;;;;3.03;1.70;;;;;;;;;;5074564;28;20379;-56
2022/06/01 14:10:33;;;;;;;1.92;1.70;;;;;;;;;;5074533;28;20616;-58
2022/06/01 14:12:59;;;;;;;3.80;2.13;;;;;;;;;;5074460;28;20605;-57
2022/06/01 14:15:26;;;;;;;2.55;1.98;;;;;;;;;;5075944;28;20402;-54
2022/06/01 14:17:52;;;;;;;2.30;2.05;;;;;;;;;;5077431;28;20712;-56
2022/06/01 14:20:18;;;;;;;2.40;2.17;;;;;;;;;;5076895;28;20397;-58
2022/06/01 14:22:44;;;;;;;2.60;2.40;;;;;;;;;;5078718;28;20454;-56
2022/06/01 14:30:40;;;;;;;2.10;1.90;;;;;;;;;;5078339;28;20392;-56
2022/06/01 14:33:07;;;;;;;2.70;2.17;;;;;;;;;;5075868;28;20742;-55
2022/06/01 14:35:33;;;;;;;2.42;2.15;;;;;;;;;;5074501;28;20443;-57
2022/06/01 14:37:59;;;;;;;2.67;2.40;;;;;;;;;;5077070;28;20752;-55
2022/06/01 14:40:25;;;;;;;2.70;2.40;;;;;;;;;;5078995;28;20417;-57
2022/06/01 14:42:51;;;;;;;2.30;2.10;;;;;;;;;;5077266;28;20405;-57
2022/06/01 14:45:17;;;;;;;2.92;2.17;;;;;;;;;;5076802;28;20433;-55
2022/06/01 14:47:43;;;;;;;4.88;2.45;;;;;;;;;;5074872;28;20459;-57
2022/06/01 14:50:09;;;;;;;3.47;2.75;;;;;;;;;;5076052;28;20777;-54
2022/06/01 14:52:34;;;;;;;2.42;2.10;;;;;;;;;;5075237;28;20370;-57
2022/06/01 14:55:01;;;;;;;2.60;2.40;;;;;;;;;;5075721;28;20447;-56
2022/06/01 14:57:27;;;;;;;6.22;2.40;;;;;;;;;;5076850;28;20509;-62
2022/06/01 14:59:53;;;;;;;3.33;2.80;;;;;;;;;;5077781;28;20453;-56
2022/06/01 15:02:21;;;;;;;2.88;2.30;;;;;;;;;;5076974;28;20425;-56
2022/06/01 15:04:48;;;;;;;2.83;2.42;;;;;;;;;;5087207;28;20374;-57
2022/06/01 15:07:14;;;;;;;2.90;2.35;;;;;;;;;;5085309;28;20793;-58
2022/06/01 15:09:40;;;;;;;3.88;2.22;;;;;;;;;;5084644;28;20382;-57
2022/06/01 15:12:08;;;;;;;2.60;2.05;;;;;;;;;;5085883;28;20950;-56
2022/06/01 15:14:35;;;;;;;3.10;2.33;;;;;;;;;;5086660;28;20472;-56
2022/06/01 15:17:04;;;;;;;2.85;2.50;;;;;;;;;;5087198;28;20401;-57
2022/06/01 15:19:32;;;;;;;3.78;2.10;;;;;;;;;;5086415;28;20443;-57
2022/06/01 15:21:58;;;;;;;2.40;1.90;;;;;;;;;;5085779;28;20401;-57
2022/06/01 15:24:24;;;;;;;2.85;2.00;;;;;;;;;;5084188;28;20467;-55
2022/06/01 15:26:51;;;;;;;2.40;1.70;;;;;;;;;;5084912;28;21007;-55
2022/06/01 15:40:21;;;;;;;2.90;2.60;;;;;;;;;;5081667;28;20424;-58
2022/06/01 15:42:48;;;;;;;3.35;2.50;;;;;;;;;;5080504;28;20493;-58
2022/06/01 15:45:14;;;;;;;3.42;3.13;;;;;;;;;;5080559;28;20979;-57
2022/06/01 15:47:41;;;;;;;3.10;2.80;;;;;;;;;;5078632;28;20847;-56
2022/06/01 15:50:08;;;;;;;3.00;2.80;;;;;;;;;;5084213;28;20382;-54
2022/06/01 15:52:34;;;;;;;4.10;2.63;;;;;;;;;;5084419;28;20467;-56
2022/06/01 15:55:00;;;;;;;3.00;2.53;;;;;;;;;;5083936;28;20374;-58